createdAt,value
2023-04-07T00:01:42.624Z,1.40
2023-04-07T00:04:10.271Z,1.50
2023-04-07T00:06:37.512Z,1.60
2023-04-07T00:09:04.599Z,1.60
2023-04-07T00:11:31.656Z,1.50
2023-04-07T00:13:58.759Z,1.60
2023-04-07T00:16:25.816Z,1.60
2023-04-07T00:18:53.057Z,1.60
2023-04-07T00:21:20.172Z,1.60
2023-04-07T00:23:47.876Z,1.50
2023-04-07T00:26:15.048Z,1.50
2023-04-07T00:28:44.485Z,1.60
2023-04-07T00:31:11.659Z,1.60
2023-04-07T00:33:39.246Z,1.60
2023-04-07T00:36:06.579Z,1.60
2023-04-07T00:38:33.731Z,1.70
2023-04-07T00:41:01.539Z,1.60
2023-04-07T00:43:28.599Z,1.70
2023-04-07T00:45:56.542Z,1.70
2023-04-07T00:48:23.742Z,1.70
2023-04-07T00:50:51.214Z,1.70
2023-04-07T00:53:20.414Z,1.60
2023-04-07T00:55:47.602Z,1.50
2023-04-07T00:58:14.859Z,1.40
2023-04-07T01:00:51.737Z,1.40
2023-04-07T01:03:30.760Z,1.50
2023-04-07T01:06:02.836Z,1.40
2023-04-07T01:08:50.233Z,1.40
2023-04-07T01:11:30.982Z,1.40
2023-04-07T01:14:00.158Z,1.40
2023-04-07T01:16:53.834Z,1.40
2023-04-07T01:19:40.357Z,1.40
2023-04-07T01:22:14.392Z,1.40
2023-04-07T01:24:52.401Z,1.30
2023-04-07T01:27:40.544Z,1.30
2023-04-07T01:30:11.813Z,1.30
2023-04-07T01:32:41.874Z,1.30
2023-04-07T01:35:13.171Z,1.30
2023-04-07T01:37:41.190Z,1.30
2023-04-07T01:40:09.313Z,1.30
2023-04-07T01:42:38.072Z,1.30
2023-04-07T01:45:07.905Z,1.30
2023-04-07T01:47:37.752Z,1.40
2023-04-07T01:50:09.286Z,1.40
2023-04-07T01:52:37.114Z,1.40
2023-04-07T01:55:05.507Z,1.50
2023-04-07T01:57:36.295Z,1.60
2023-04-07T02:00:11.647Z,1.60
2023-04-07T02:02:57.605Z,1.70
2023-04-07T02:05:26.409Z,1.80
2023-04-07T02:07:59.784Z,1.80
2023-04-07T02:10:29.770Z,1.80
2023-04-07T02:13:02.143Z,1.80
2023-04-07T02:15:32.236Z,1.80
2023-04-07T02:18:01.947Z,1.90
2023-04-07T02:20:30.643Z,1.90
2023-04-07T02:22:58.423Z,1.80
2023-04-07T02:25:31.001Z,1.80
2023-04-07T02:27:59.573Z,1.70
2023-04-07T02:30:28.642Z,1.60
2023-04-07T02:32:56.542Z,1.60
2023-04-07T02:35:24.108Z,1.60
2023-04-07T02:37:51.469Z,1.60
2023-04-07T02:40:18.788Z,1.50
2023-04-07T02:42:46.703Z,1.40
2023-04-07T02:45:14.660Z,1.30
2023-04-07T02:47:41.771Z,1.30
2023-04-07T02:50:09.812Z,1.20
2023-04-07T02:52:37.151Z,1.20
2023-04-07T02:55:10.758Z,1.20
2023-04-07T02:57:38.161Z,1.20
2023-04-07T03:00:10.510Z,1.10
2023-04-07T03:02:57.710Z,1.10
2023-04-07T03:05:26.693Z,1.10
2023-04-07T03:07:53.901Z,1.20
2023-04-07T03:10:21.052Z,1.20
2023-04-07T03:12:48.731Z,1.20
2023-04-07T03:15:17.659Z,1.20
2023-04-07T03:17:47.774Z,1.30
2023-04-07T03:20:17.376Z,1.30
2023-04-07T03:22:44.859Z,1.30
2023-04-07T03:25:18.746Z,1.20
2023-04-07T03:27:46.374Z,1.20
2023-04-07T03:30:15.592Z,1.30
2023-04-07T03:32:44.087Z,1.40
2023-04-07T03:35:11.473Z,1.40
2023-04-07T03:37:38.615Z,1.30
2023-04-07T03:40:11.954Z,1.30
2023-04-07T03:42:39.249Z,1.20
2023-04-07T03:45:08.663Z,1.20
2023-04-07T03:47:38.523Z,1.20
2023-04-07T03:50:07.020Z,1.20
2023-04-07T03:52:41.824Z,1.20
2023-04-07T03:55:20.498Z,1.20
2023-04-07T03:57:47.693Z,1.20
2023-04-07T04:00:15.813Z,1.20
2023-04-07T04:02:48.775Z,1.20
2023-04-07T04:05:19.946Z,1.20
2023-04-07T04:07:47.830Z,1.20
2023-04-07T04:10:16.313Z,1.20
2023-04-07T04:12:48.974Z,1.20
2023-04-07T04:15:16.458Z,1.30
2023-04-07T04:17:43.601Z,1.30
2023-04-07T04:20:11.336Z,1.30
2023-04-07T04:22:43.168Z,1.30
2023-04-07T04:25:10.565Z,1.40
2023-04-07T04:27:37.643Z,1.40
2023-04-07T04:30:13.621Z,1.40
2023-04-07T04:32:49.825Z,1.40
2023-04-07T04:35:20.919Z,1.40
2023-04-07T04:38:02.697Z,1.40
2023-04-07T04:40:30.508Z,1.40
2023-04-07T04:42:57.781Z,1.40
2023-04-07T04:45:25.746Z,1.40
2023-04-07T04:47:52.975Z,1.40
2023-04-07T04:50:21.020Z,1.50
2023-04-07T04:52:49.785Z,1.50
2023-04-07T04:55:20.749Z,1.60
2023-04-07T04:57:48.184Z,1.60
2023-04-07T05:00:21.351Z,1.60
2023-04-07T05:02:52.756Z,1.60
2023-04-07T05:05:20.106Z,1.60
2023-04-07T05:07:49.610Z,1.60
2023-04-07T05:10:17.043Z,1.60
2023-04-07T05:12:49.491Z,1.70
2023-04-07T05:15:16.721Z,1.80
2023-04-07T05:17:50.659Z,1.90
2023-04-07T05:20:23.130Z,2.10
2023-04-07T05:22:50.819Z,2.20
2023-04-07T05:25:21.415Z,2.30
2023-04-07T05:27:52.238Z,2.40
2023-04-07T05:30:19.602Z,2.50
2023-04-07T05:32:46.654Z,2.60
2023-04-07T05:35:23.105Z,2.80
2023-04-07T05:37:55.050Z,2.90
2023-04-07T05:40:22.912Z,3.00
2023-04-07T05:42:50.737Z,3.20
2023-04-07T05:45:18.442Z,3.30
2023-04-07T05:47:50.635Z,3.40
2023-04-07T05:50:23.634Z,3.50
2023-04-07T05:52:51.427Z,3.40
2023-04-07T05:55:23.069Z,3.50
2023-04-07T05:57:51.361Z,3.50
2023-04-07T06:00:21.689Z,3.60
2023-04-07T06:03:00.156Z,3.60
2023-04-07T06:05:28.817Z,3.60
2023-04-07T06:07:57.432Z,3.60
2023-04-07T06:10:27.310Z,3.70
2023-04-07T06:12:54.570Z,3.80
2023-04-07T06:15:21.660Z,3.90
2023-04-07T06:17:48.905Z,3.80
2023-04-07T06:20:16.182Z,3.90
2023-04-07T06:22:43.437Z,3.90
2023-04-07T06:25:10.816Z,4.00
2023-04-07T06:27:37.950Z,4.10
2023-04-07T06:30:05.905Z,4.20
2023-04-07T06:32:33.630Z,4.20
2023-04-07T06:35:00.944Z,4.40
2023-04-07T06:37:28.147Z,4.50
2023-04-07T06:39:55.429Z,4.70
2023-04-07T06:42:22.507Z,4.80
2023-04-07T06:44:58.862Z,4.90
2023-04-07T06:47:26.042Z,5.20
2023-04-07T06:49:53.060Z,5.40
2023-04-07T06:52:20.433Z,5.50
2023-04-07T06:54:47.509Z,5.70
2023-04-07T06:57:14.931Z,5.90
2023-04-07T06:59:42.028Z,6.00
2023-04-07T07:02:09.405Z,6.10
2023-04-07T07:04:36.713Z,6.30
2023-04-07T07:07:03.995Z,6.30
2023-04-07T07:09:31.089Z,6.30
2023-04-07T07:11:58.129Z,6.50
2023-04-07T07:14:25.126Z,6.60
2023-04-07T07:16:52.167Z,6.40
2023-04-07T07:19:19.419Z,6.60
2023-04-07T07:21:46.497Z,6.80
2023-04-07T07:24:13.670Z,6.60
2023-04-07T07:26:43.463Z,6.60
2023-04-07T07:29:11.377Z,6.70
2023-04-07T07:31:38.465Z,6.80
2023-04-07T07:34:05.685Z,6.90
2023-04-07T07:36:32.784Z,7.00
2023-04-07T07:38:59.811Z,7.20
2023-04-07T07:41:27.310Z,7.30
2023-04-07T07:43:54.554Z,7.40
2023-04-07T07:46:22.377Z,7.70
2023-04-07T07:48:49.471Z,8.00
2023-04-07T07:51:16.597Z,8.60
2023-04-07T07:53:44.015Z,9.20
2023-04-07T07:56:11.331Z,9.80
2023-04-07T07:58:38.849Z,10.30
2023-04-07T08:01:06.114Z,10.70
2023-04-07T08:03:33.499Z,11.30
2023-04-07T08:06:01.219Z,11.60
2023-04-07T08:08:28.317Z,11.60
2023-04-07T08:10:55.381Z,11.80
2023-04-07T08:13:22.507Z,12.30
2023-04-07T08:15:49.724Z,13.00
2023-04-07T08:18:16.851Z,13.60
2023-04-07T08:20:43.941Z,14.40
2023-04-07T08:23:11.341Z,15.00
2023-04-07T08:25:41.037Z,16.10
2023-04-07T08:28:08.140Z,17.40
2023-04-07T08:30:35.488Z,18.10
2023-04-07T08:33:04.143Z,19.00
2023-04-07T08:35:31.295Z,19.50
2023-04-07T08:37:58.881Z,19.70
2023-04-07T08:40:25.856Z,19.20
2023-04-07T08:42:53.600Z,18.40
2023-04-07T08:45:22.351Z,18.10
2023-04-07T08:47:55.395Z,17.50
2023-04-07T08:50:26.312Z,16.90
2023-04-07T08:52:54.171Z,16.50
2023-04-07T08:55:21.524Z,16.10
2023-04-07T08:57:49.270Z,15.90
2023-04-07T09:00:16.544Z,15.70
2023-04-07T09:02:45.790Z,15.50
2023-04-07T09:05:15.036Z,15.70
2023-04-07T09:07:43.825Z,15.80
2023-04-07T09:10:11.404Z,15.90
2023-04-07T09:12:39.169Z,15.60
2023-04-07T09:15:07.980Z,15.60
2023-04-07T09:17:35.185Z,15.40
2023-04-07T09:20:03.026Z,15.40
2023-04-07T09:22:38.672Z,15.40
2023-04-07T09:25:24.145Z,15.80
2023-04-07T09:28:03.320Z,15.70
2023-04-07T09:30:32.716Z,15.70
2023-04-07T09:33:01.123Z,15.80
2023-04-07T09:35:29.939Z,16.00
2023-04-07T09:38:09.562Z,16.30
2023-04-07T09:40:38.929Z,16.30
2023-04-07T09:43:06.934Z,16.10
2023-04-07T09:45:36.552Z,15.80
2023-04-07T09:48:08.057Z,15.60
2023-04-07T09:50:41.306Z,15.40
2023-04-07T09:53:08.866Z,15.10
2023-04-07T09:55:36.982Z,14.90
2023-04-07T09:58:06.512Z,14.70
2023-04-07T10:00:35.469Z,14.80
2023-04-07T10:03:04.369Z,14.80
2023-04-07T10:05:33.026Z,14.80
2023-04-07T10:08:02.571Z,15.00
2023-04-07T10:10:31.983Z,15.00
2023-04-07T10:13:00.174Z,14.70
2023-04-07T10:15:27.504Z,14.50
2023-04-07T10:17:56.995Z,14.80
2023-04-07T10:20:25.000Z,15.30
2023-04-07T10:22:54.261Z,16.10
2023-04-07T10:25:24.854Z,16.50
2023-04-07T10:27:56.606Z,17.00
2023-04-07T10:30:29.079Z,17.30
2023-04-07T10:32:57.201Z,17.20
2023-04-07T10:35:24.991Z,17.00
2023-04-07T10:38:08.153Z,16.70
2023-04-07T10:40:36.593Z,16.50
2023-04-07T10:43:05.080Z,16.00
2023-04-07T10:45:48.861Z,16.10
2023-04-07T10:48:17.309Z,16.10
2023-04-07T10:50:46.455Z,16.00
2023-04-07T10:53:15.409Z,16.30
2023-04-07T10:55:45.272Z,16.00
2023-04-07T10:58:14.547Z,16.00
2023-04-07T11:00:41.949Z,15.70
2023-04-07T11:03:14.337Z,15.80
2023-04-07T11:05:42.259Z,15.80
2023-04-07T11:08:09.583Z,15.60
2023-04-07T11:10:36.921Z,15.40
2023-04-07T11:13:06.395Z,15.20
2023-04-07T11:15:38.572Z,15.30
2023-04-07T11:18:23.964Z,15.40
2023-04-07T11:20:53.555Z,15.60
2023-04-07T11:23:24.054Z,15.80
2023-04-07T11:25:53.062Z,16.20
2023-04-07T11:28:20.414Z,16.50
2023-04-07T11:30:50.259Z,17.00
2023-04-07T11:33:21.365Z,16.70
2023-04-07T11:35:51.357Z,16.20
2023-04-07T11:38:19.468Z,16.20
2023-04-07T11:40:46.775Z,16.70
2023-04-07T11:43:25.153Z,16.50
2023-04-07T11:46:09.657Z,16.60
2023-04-07T11:48:38.973Z,16.60
2023-04-07T11:51:07.059Z,16.20
2023-04-07T11:53:38.199Z,16.10
2023-04-07T11:56:09.857Z,16.10
2023-04-07T11:58:37.616Z,16.30
2023-04-07T12:01:09.236Z,16.60
2023-04-07T12:03:37.606Z,16.80
2023-04-07T12:06:05.358Z,17.00
2023-04-07T12:08:42.653Z,17.00
2023-04-07T12:11:10.647Z,16.90
2023-04-07T12:13:38.090Z,17.00
2023-04-07T12:16:05.760Z,17.10
2023-04-07T12:18:33.500Z,17.00
2023-04-07T12:21:01.512Z,17.00
2023-04-07T12:23:28.705Z,16.90
2023-04-07T12:25:56.045Z,16.70
2023-04-07T12:28:23.329Z,16.60
2023-04-07T12:30:50.589Z,16.50
2023-04-07T12:33:17.754Z,16.80
2023-04-07T12:35:45.221Z,17.00
2023-04-07T12:38:12.556Z,17.20
2023-04-07T12:40:40.224Z,17.20
2023-04-07T12:43:07.699Z,17.40
2023-04-07T12:45:34.998Z,17.20
2023-04-07T12:48:02.169Z,16.90
2023-04-07T12:50:30.572Z,16.70
2023-04-07T12:52:59.956Z,16.60
2023-04-07T12:55:27.084Z,16.50
2023-04-07T12:57:55.371Z,16.50
2023-04-07T13:00:22.546Z,16.70
2023-04-07T13:02:49.916Z,16.50
2023-04-07T13:05:18.865Z,16.80
2023-04-07T13:07:47.377Z,16.70
2023-04-07T13:10:16.133Z,16.50
2023-04-07T13:12:43.377Z,16.20
2023-04-07T13:15:10.928Z,16.20
2023-04-07T13:17:38.992Z,16.30
2023-04-07T13:20:07.827Z,16.10
2023-04-07T13:22:36.006Z,15.80
2023-04-07T13:25:03.515Z,15.80
2023-04-07T13:27:30.800Z,15.80
2023-04-07T13:29:57.792Z,15.80
2023-04-07T13:32:24.849Z,15.80
2023-04-07T13:34:52.988Z,15.90
2023-04-07T13:37:20.554Z,16.10
2023-04-07T13:39:47.653Z,16.20
2023-04-07T13:42:17.686Z,16.20
2023-04-07T13:44:47.533Z,16.20
2023-04-07T13:47:19.669Z,16.40
2023-04-07T13:49:47.861Z,16.30
2023-04-07T13:52:15.706Z,15.90
2023-04-07T13:54:43.273Z,15.50
2023-04-07T13:57:10.512Z,15.30
2023-04-07T13:59:37.496Z,15.30
2023-04-07T14:02:04.739Z,15.20
2023-04-07T14:04:32.016Z,15.30
2023-04-07T14:06:59.029Z,15.20
2023-04-07T14:09:26.587Z,15.30
2023-04-07T14:11:53.834Z,15.20
2023-04-07T14:14:21.066Z,15.10
2023-04-07T14:16:50.900Z,15.00
2023-04-07T14:19:20.548Z,14.70
2023-04-07T14:21:47.648Z,14.60
2023-04-07T14:24:15.087Z,14.60
2023-04-07T14:26:44.865Z,14.50
2023-04-07T14:29:12.891Z,14.50
2023-04-07T14:31:40.368Z,14.40
2023-04-07T14:34:08.395Z,14.50
2023-04-07T14:36:35.788Z,14.30
2023-04-07T14:39:03.858Z,14.30
2023-04-07T14:41:31.693Z,14.40
2023-04-07T14:43:58.812Z,14.30
2023-04-07T14:46:27.681Z,14.20
2023-04-07T14:48:54.875Z,14.20
2023-04-07T14:51:22.221Z,14.00
2023-04-07T14:53:56.231Z,13.70
2023-04-07T14:56:25.051Z,13.50
2023-04-07T14:58:52.288Z,13.20
2023-04-07T15:01:19.448Z,12.90
2023-04-07T15:03:47.620Z,12.60
2023-04-07T15:06:16.895Z,12.40
2023-04-07T15:08:44.116Z,12.50
2023-04-07T15:11:11.539Z,12.50
2023-04-07T15:13:38.540Z,12.30
2023-04-07T15:16:09.480Z,12.20
2023-04-07T15:18:38.871Z,12.30
2023-04-07T15:21:06.513Z,12.20
2023-04-07T15:23:34.108Z,12.20
2023-04-07T15:26:01.297Z,12.20
2023-04-07T15:28:28.342Z,12.20
2023-04-07T15:30:55.462Z,12.10
2023-04-07T15:33:22.673Z,12.10
2023-04-07T15:35:50.682Z,12.10
2023-04-07T15:38:18.242Z,12.00
2023-04-07T15:40:45.448Z,11.90
2023-04-07T15:43:12.787Z,11.90
2023-04-07T15:45:44.335Z,11.90
2023-04-07T15:48:12.623Z,11.90
2023-04-07T15:50:39.774Z,11.90
2023-04-07T15:53:07.301Z,11.90
2023-04-07T15:55:35.601Z,11.90
2023-04-07T15:58:04.130Z,11.90
2023-04-07T16:00:34.390Z,12.00
2023-04-07T16:03:02.943Z,12.00
2023-04-07T16:05:30.524Z,11.90
2023-04-07T16:07:57.895Z,11.90
2023-04-07T16:10:25.374Z,11.70
2023-04-07T16:12:52.839Z,11.60
2023-04-07T16:15:28.957Z,11.40
2023-04-07T16:18:08.697Z,11.20
2023-04-07T16:20:35.899Z,11.10
2023-04-07T16:23:03.092Z,11.00
2023-04-07T16:25:30.900Z,10.90
2023-04-07T16:27:58.139Z,10.80
2023-04-07T16:30:25.539Z,10.70
2023-04-07T16:32:52.761Z,10.80
2023-04-07T16:35:20.063Z,10.70
2023-04-07T16:37:47.799Z,10.70
2023-04-07T16:40:14.956Z,10.70
2023-04-07T16:42:42.193Z,10.60
2023-04-07T16:45:09.666Z,10.60
2023-04-07T16:47:38.264Z,10.50
2023-04-07T16:50:05.998Z,10.40
2023-04-07T16:52:33.131Z,10.30
2023-04-07T16:55:01.184Z,10.20
2023-04-07T16:57:28.598Z,10.10
2023-04-07T16:59:55.865Z,10.00
2023-04-07T17:02:23.435Z,9.90
2023-04-07T17:04:50.753Z,9.90
2023-04-07T17:07:19.244Z,9.80
2023-04-07T17:09:46.307Z,9.70
2023-04-07T17:12:13.807Z,9.60
2023-04-07T17:14:41.720Z,9.60
2023-04-07T17:17:08.814Z,9.50
2023-04-07T17:19:36.189Z,9.50
2023-04-07T17:22:03.673Z,9.40
2023-04-07T17:24:30.853Z,9.40
2023-04-07T17:26:58.084Z,9.40
2023-04-07T17:29:29.196Z,9.30
2023-04-07T17:31:57.635Z,9.30
2023-04-07T17:34:24.874Z,9.20
2023-04-07T17:36:51.997Z,9.10
2023-04-07T17:39:19.486Z,9.00
2023-04-07T17:41:47.650Z,9.00
2023-04-07T17:44:15.090Z,8.90
2023-04-07T17:46:45.728Z,8.90
2023-04-07T17:49:13.345Z,8.80
2023-04-07T17:51:40.715Z,8.80
2023-04-07T17:54:07.938Z,8.80
2023-04-07T17:56:35.088Z,8.80
2023-04-07T17:59:02.319Z,8.70
2023-04-07T18:01:29.556Z,8.70
2023-04-07T18:03:57.434Z,8.70
2023-04-07T18:06:24.708Z,8.60
2023-04-07T18:08:51.774Z,8.50
2023-04-07T18:11:19.533Z,8.50
2023-04-07T18:13:46.801Z,8.50
2023-04-07T18:16:18.180Z,8.60
2023-04-07T18:18:49.072Z,8.50
2023-04-07T18:21:16.429Z,8.50
2023-04-07T18:23:43.762Z,8.50
2023-04-07T18:26:11.071Z,8.50
2023-04-07T18:28:38.222Z,8.50
2023-04-07T18:31:07.931Z,8.50
2023-04-07T18:33:37.580Z,8.50
2023-04-07T18:36:08.270Z,8.50
2023-04-07T18:38:36.736Z,8.50
2023-04-07T18:41:06.628Z,8.50
2023-04-07T18:43:34.383Z,8.40
2023-04-07T18:46:01.632Z,8.40
2023-04-07T18:48:28.930Z,8.40
2023-04-07T18:50:56.644Z,8.40
2023-04-07T18:53:25.618Z,8.40
2023-04-07T18:55:53.052Z,8.40
2023-04-07T18:58:21.038Z,8.40
2023-04-07T19:00:50.379Z,8.40
2023-04-07T19:03:17.915Z,8.40
2023-04-07T19:05:47.449Z,8.40
2023-04-07T19:08:16.333Z,8.40
2023-04-07T19:10:44.171Z,8.40
2023-04-07T19:13:11.522Z,8.40
2023-04-07T19:15:40.791Z,8.40
2023-04-07T19:18:08.441Z,8.30
2023-04-07T19:20:35.675Z,8.30
2023-04-07T19:23:03.352Z,8.20
2023-04-07T19:25:31.363Z,8.20
2023-04-07T19:27:59.111Z,8.20
2023-04-07T19:30:26.670Z,8.10
2023-04-07T19:32:54.220Z,8.20
2023-04-07T19:35:21.623Z,8.10
2023-04-07T19:37:48.830Z,8.10
2023-04-07T19:40:16.924Z,8.10
2023-04-07T19:42:44.222Z,8.10
2023-04-07T19:45:12.104Z,8.10
2023-04-07T19:47:40.972Z,8.00
2023-04-07T19:50:09.813Z,8.00
2023-04-07T19:52:38.846Z,8.00
2023-04-07T19:55:07.919Z,8.00
2023-04-07T19:57:36.098Z,7.90
2023-04-07T20:00:04.555Z,7.90
2023-04-07T20:02:31.856Z,7.90
2023-04-07T20:04:59.148Z,7.80
2023-04-07T20:07:27.231Z,7.80
2023-04-07T20:09:55.118Z,7.80
2023-04-07T20:12:22.132Z,7.80
2023-04-07T20:14:49.484Z,7.70
2023-04-07T20:17:16.650Z,7.60
2023-04-07T20:19:43.820Z,7.60
2023-04-07T20:22:10.912Z,7.50
2023-04-07T20:24:39.266Z,7.50
2023-04-07T20:27:06.378Z,7.40
2023-04-07T20:29:33.488Z,7.40
2023-04-07T20:32:00.904Z,7.40
2023-04-07T20:34:28.036Z,7.30
2023-04-07T20:36:55.901Z,7.30
2023-04-07T20:39:22.908Z,7.30
2023-04-07T20:41:50.046Z,7.30
2023-04-07T20:44:17.119Z,7.20
2023-04-07T20:46:46.489Z,7.20
2023-04-07T20:49:13.580Z,7.20
2023-04-07T20:51:40.948Z,7.20
2023-04-07T20:54:08.082Z,7.20
2023-04-07T20:56:35.653Z,7.10
2023-04-07T20:59:02.729Z,7.10
2023-04-07T21:01:29.927Z,7.10
2023-04-07T21:03:57.207Z,7.00
2023-04-07T21:06:24.486Z,6.90
2023-04-07T21:08:51.736Z,6.90
2023-04-07T21:11:18.764Z,6.90
2023-04-07T21:13:45.894Z,6.80
2023-04-07T21:16:12.986Z,6.80
2023-04-07T21:18:40.324Z,6.70
2023-04-07T21:21:08.242Z,6.70
2023-04-07T21:23:35.481Z,6.70
2023-04-07T21:26:03.868Z,6.60
2023-04-07T21:28:30.993Z,6.60
2023-04-07T21:30:58.409Z,6.70
2023-04-07T21:33:25.641Z,6.60
2023-04-07T21:35:53.265Z,6.60
2023-04-07T21:38:20.477Z,6.50
2023-04-07T21:40:47.617Z,6.40
2023-04-07T21:43:14.757Z,6.40
2023-04-07T21:45:42.125Z,6.30
2023-04-07T21:48:09.250Z,6.40
2023-04-07T21:50:37.246Z,6.40
2023-04-07T21:53:04.362Z,6.40
2023-04-07T21:55:31.639Z,6.40
2023-04-07T21:57:58.851Z,6.40
2023-04-07T22:00:26.182Z,6.40
2023-04-07T22:02:53.546Z,6.40
2023-04-07T22:05:21.398Z,6.50
2023-04-07T22:07:49.312Z,6.50
2023-04-07T22:10:16.506Z,6.40
2023-04-07T22:12:43.620Z,6.40
2023-04-07T22:15:12.194Z,6.40
2023-04-07T22:17:40.367Z,6.40
2023-04-07T22:20:09.276Z,6.40
2023-04-07T22:22:36.625Z,6.40
2023-04-07T22:25:03.977Z,6.40
2023-04-07T22:27:31.002Z,6.40
2023-04-07T22:29:58.390Z,6.40
2023-04-07T22:32:25.522Z,6.40
2023-04-07T22:34:52.680Z,6.40
2023-04-07T22:37:19.711Z,6.40
2023-04-07T22:39:47.079Z,6.40
2023-04-07T22:42:14.226Z,6.40
2023-04-07T22:44:41.299Z,6.40
2023-04-07T22:47:09.139Z,6.30
2023-04-07T22:49:36.422Z,6.30
2023-04-07T22:52:03.565Z,6.40
2023-04-07T22:54:30.764Z,6.30
2023-04-07T22:56:58.084Z,6.30
2023-04-07T22:59:25.453Z,6.30
2023-04-07T23:01:52.544Z,6.30
2023-04-07T23:04:21.480Z,6.30
2023-04-07T23:06:48.502Z,6.20
2023-04-07T23:09:15.719Z,6.20
2023-04-07T23:11:42.897Z,6.20
2023-04-07T23:14:09.959Z,6.20
2023-04-07T23:16:37.081Z,6.20
2023-04-07T23:19:04.166Z,6.10
2023-04-07T23:21:32.238Z,6.10
2023-04-07T23:23:59.917Z,6.10
2023-04-07T23:26:27.001Z,6.10
2023-04-07T23:28:53.984Z,6.10
2023-04-07T23:31:21.277Z,6.00
2023-04-07T23:33:48.385Z,6.00
2023-04-07T23:36:15.636Z,6.00
2023-04-07T23:38:42.751Z,6.00
2023-04-07T23:41:09.791Z,5.90
2023-04-07T23:43:36.921Z,5.90
2023-04-07T23:46:04.008Z,5.90
2023-04-07T23:48:31.480Z,5.90
2023-04-07T23:51:00.128Z,5.90
2023-04-07T23:53:27.425Z,5.90
2023-04-07T23:55:54.497Z,5.90
2023-04-07T23:58:21.587Z,5.90
